sensor_id;sensor_type;location;lat;lon;timestamp;P1;durP1;ratioP1;P2;durP2;ratioP2
5475;SDS011;2760;50.000;9.194;2023-03-21T00:02:11;18.27;;;7.30;;
5475;SDS011;2760;50.000;9.194;2023-03-21T00:04:38;9.20;;;6.33;;
5475;SDS011;2760;50.000;9.194;2023-03-21T00:07:05;10.77;;;6.20;;
5475;SDS011;2760;50.000;9.194;2023-03-21T00:09:32;8.33;;;5.00;;
5475;SDS011;2760;50.000;9.194;2023-03-21T00:11:59;9.67;;;5.47;;
5475;SDS011;2760;50.000;9.194;2023-03-21T00:14:28;12.17;;;5.77;;
5475;SDS011;2760;50.000;9.194;2023-03-21T00:16:55;8.00;;;5.30;;
5475;SDS011;2760;50.000;9.194;2023-03-21T00:19:22;6.50;;;5.67;;
5475;SDS011;2760;50.000;9.194;2023-03-21T00:21:50;9.00;;;6.10;;
5475;SDS011;2760;50.000;9.194;2023-03-21T00:24:19;7.70;;;5.43;;
5475;SDS011;2760;50.000;9.194;2023-03-21T00:26:47;9.23;;;5.20;;
5475;SDS011;2760;50.000;9.194;2023-03-21T00:29:15;10.47;;;5.37;;
5475;SDS011;2760;50.000;9.194;2023-03-21T00:31:46;7.53;;;6.27;;
5475;SDS011;2760;50.000;9.194;2023-03-21T00:34:14;8.80;;;5.30;;
5475;SDS011;2760;50.000;9.194;2023-03-21T00:36:41;10.70;;;5.80;;
5475;SDS011;2760;50.000;9.194;2023-03-21T00:39:08;8.73;;;5.70;;
5475;SDS011;2760;50.000;9.194;2023-03-21T00:41:35;8.90;;;6.37;;
5475;SDS011;2760;50.000;9.194;2023-03-21T00:44:02;9.53;;;5.73;;
5475;SDS011;2760;50.000;9.194;2023-03-21T00:46:30;9.33;;;5.43;;
5475;SDS011;2760;50.000;9.194;2023-03-21T00:49:01;9.90;;;5.23;;
5475;SDS011;2760;50.000;9.194;2023-03-21T00:51:28;7.93;;;5.47;;
5475;SDS011;2760;50.000;9.194;2023-03-21T00:53:57;13.23;;;5.90;;
5475;SDS011;2760;50.000;9.194;2023-03-21T00:56:26;9.60;;;5.70;;
5475;SDS011;2760;50.000;9.194;2023-03-21T00:58:53;16.73;;;6.97;;
5475;SDS011;2760;50.000;9.194;2023-03-21T01:01:23;10.70;;;6.10;;
5475;SDS011;2760;50.000;9.194;2023-03-21T01:03:56;11.27;;;5.43;;
5475;SDS011;2760;50.000;9.194;2023-03-21T01:06:31;9.70;;;5.60;;
5475;SDS011;2760;50.000;9.194;2023-03-21T01:09:04;8.70;;;5.60;;
5475;SDS011;2760;50.000;9.194;2023-03-21T01:11:34;10.80;;;5.87;;
5475;SDS011;2760;50.000;9.194;2023-03-21T01:14:04;10.37;;;5.57;;
5475;SDS011;2760;50.000;9.194;2023-03-21T01:16:31;11.83;;;5.50;;
5475;SDS011;2760;50.000;9.194;2023-03-21T01:18:58;12.77;;;5.97;;
5475;SDS011;2760;50.000;9.194;2023-03-21T01:21:25;11.33;;;5.53;;
5475;SDS011;2760;50.000;9.194;2023-03-21T01:23:53;10.30;;;5.33;;
5475;SDS011;2760;50.000;9.194;2023-03-21T01:26:22;8.93;;;5.97;;
5475;SDS011;2760;50.000;9.194;2023-03-21T01:28:50;10.47;;;5.20;;
5475;SDS011;2760;50.000;9.194;2023-03-21T01:31:16;12.67;;;4.77;;
5475;SDS011;2760;50.000;9.194;2023-03-21T01:33:44;9.30;;;4.37;;
5475;SDS011;2760;50.000;9.194;2023-03-21T01:36:12;10.97;;;4.53;;
5475;SDS011;2760;50.000;9.194;2023-03-21T01:38:42;6.50;;;4.97;;
5475;SDS011;2760;50.000;9.194;2023-03-21T01:41:12;9.97;;;5.10;;
5475;SDS011;2760;50.000;9.194;2023-03-21T01:43:47;8.83;;;5.37;;
5475;SDS011;2760;50.000;9.194;2023-03-21T01:46:33;12.27;;;5.70;;
5475;SDS011;2760;50.000;9.194;2023-03-21T01:49:30;8.87;;;5.20;;
5475;SDS011;2760;50.000;9.194;2023-03-21T01:52:20;8.50;;;5.10;;
5475;SDS011;2760;50.000;9.194;2023-03-21T01:54:51;7.73;;;4.70;;
5475;SDS011;2760;50.000;9.194;2023-03-21T01:57:22;10.00;;;4.43;;
5475;SDS011;2760;50.000;9.194;2023-03-21T01:59:56;6.60;;;4.73;;
5475;SDS011;2760;50.000;9.194;2023-03-21T02:02:51;8.43;;;4.80;;
5475;SDS011;2760;50.000;9.194;2023-03-21T02:05:47;7.20;;;4.50;;
5475;SDS011;2760;50.000;9.194;2023-03-21T02:08:18;6.17;;;5.07;;
5475;SDS011;2760;50.000;9.194;2023-03-21T02:10:47;7.47;;;4.50;;
5475;SDS011;2760;50.000;9.194;2023-03-21T02:13:25;9.00;;;4.73;;
5475;SDS011;2760;50.000;9.194;2023-03-21T02:15:55;6.63;;;5.50;;
5475;SDS011;2760;50.000;9.194;2023-03-21T02:18:33;9.90;;;4.93;;
5475;SDS011;2760;50.000;9.194;2023-03-21T02:24:19;6.47;;;4.93;;
5475;SDS011;2760;50.000;9.194;2023-03-21T02:27:06;6.77;;;4.70;;
5475;SDS011;2760;50.000;9.194;2023-03-21T02:29:47;14.80;;;6.10;;
5475;SDS011;2760;50.000;9.194;2023-03-21T02:32:27;14.20;;;5.37;;
5475;SDS011;2760;50.000;9.194;2023-03-21T02:38:10;9.30;;;5.10;;
5475;SDS011;2760;50.000;9.194;2023-03-21T02:40:44;5.57;;;4.63;;
5475;SDS011;2760;50.000;9.194;2023-03-21T02:43:27;8.80;;;4.83;;
5475;SDS011;2760;50.000;9.194;2023-03-21T02:46:00;7.60;;;5.33;;
5475;SDS011;2760;50.000;9.194;2023-03-21T02:48:33;9.07;;;4.43;;
5475;SDS011;2760;50.000;9.194;2023-03-21T02:51:04;6.73;;;5.40;;
5475;SDS011;2760;50.000;9.194;2023-03-21T02:53:36;14.43;;;5.40;;
5475;SDS011;2760;50.000;9.194;2023-03-21T02:56:07;10.13;;;6.00;;
5475;SDS011;2760;50.000;9.194;2023-03-21T02:58:39;11.10;;;4.90;;
5475;SDS011;2760;50.000;9.194;2023-03-21T03:01:07;5.90;;;4.57;;
5475;SDS011;2760;50.000;9.194;2023-03-21T03:03:43;8.90;;;4.93;;
5475;SDS011;2760;50.000;9.194;2023-03-21T03:06:13;8.20;;;5.50;;
5475;SDS011;2760;50.000;9.194;2023-03-21T03:08:48;9.30;;;5.53;;
5475;SDS011;2760;50.000;9.194;2023-03-21T03:11:32;17.30;;;5.10;;
5475;SDS011;2760;50.000;9.194;2023-03-21T03:14:08;12.60;;;4.70;;
5475;SDS011;2760;50.000;9.194;2023-03-21T03:16:45;8.73;;;4.40;;
5475;SDS011;2760;50.000;9.194;2023-03-21T03:19:24;12.20;;;5.73;;
5475;SDS011;2760;50.000;9.194;2023-03-21T03:21:55;9.70;;;4.90;;
5475;SDS011;2760;50.000;9.194;2023-03-21T03:24:28;9.63;;;5.30;;
5475;SDS011;2760;50.000;9.194;2023-03-21T03:26:59;14.83;;;7.60;;
5475;SDS011;2760;50.000;9.194;2023-03-21T03:29:34;16.00;;;7.40;;
5475;SDS011;2760;50.000;9.194;2023-03-21T03:32:06;27.50;;;9.50;;
5475;SDS011;2760;50.000;9.194;2023-03-21T03:34:41;13.17;;;6.43;;
5475;SDS011;2760;50.000;9.194;2023-03-21T03:37:15;15.03;;;6.60;;
5475;SDS011;2760;50.000;9.194;2023-03-21T03:39:48;11.47;;;6.73;;
5475;SDS011;2760;50.000;9.194;2023-03-21T03:42:20;14.07;;;6.83;;
5475;SDS011;2760;50.000;9.194;2023-03-21T03:44:59;18.10;;;7.17;;
5475;SDS011;2760;50.000;9.194;2023-03-21T03:47:31;12.17;;;6.13;;
5475;SDS011;2760;50.000;9.194;2023-03-21T03:50:05;6.30;;;4.00;;
5475;SDS011;2760;50.000;9.194;2023-03-21T03:52:38;16.07;;;4.50;;
5475;SDS011;2760;50.000;9.194;2023-03-21T03:55:13;6.23;;;4.17;;
5475;SDS011;2760;50.000;9.194;2023-03-21T03:57:45;8.20;;;4.53;;
5475;SDS011;2760;50.000;9.194;2023-03-21T04:00:14;5.33;;;4.23;;
5475;SDS011;2760;50.000;9.194;2023-03-21T04:02:43;7.50;;;4.80;;
5475;SDS011;2760;50.000;9.194;2023-03-21T04:05:14;5.30;;;3.83;;
5475;SDS011;2760;50.000;9.194;2023-03-21T04:07:45;16.80;;;5.00;;
5475;SDS011;2760;50.000;9.194;2023-03-21T04:10:16;8.97;;;4.90;;
5475;SDS011;2760;50.000;9.194;2023-03-21T04:12:44;11.00;;;5.13;;
5475;SDS011;2760;50.000;9.194;2023-03-21T04:15:29;7.30;;;4.43;;
5475;SDS011;2760;50.000;9.194;2023-03-21T04:18:02;12.67;;;4.93;;
5475;SDS011;2760;50.000;9.194;2023-03-21T04:20:32;6.63;;;4.20;;
5475;SDS011;2760;50.000;9.194;2023-03-21T04:22:59;10.10;;;6.27;;
5475;SDS011;2760;50.000;9.194;2023-03-21T04:25:28;16.60;;;8.10;;
5475;SDS011;2760;50.000;9.194;2023-03-21T04:27:57;10.73;;;5.77;;
5475;SDS011;2760;50.000;9.194;2023-03-21T04:30:35;10.93;;;4.97;;
5475;SDS011;2760;50.000;9.194;2023-03-21T04:33:12;10.53;;;4.10;;
5475;SDS011;2760;50.000;9.194;2023-03-21T04:35:47;20.13;;;4.90;;
5475;SDS011;2760;50.000;9.194;2023-03-21T04:38:14;12.60;;;5.37;;
5475;SDS011;2760;50.000;9.194;2023-03-21T04:40:43;7.93;;;5.17;;
5475;SDS011;2760;50.000;9.194;2023-03-21T04:43:10;6.80;;;4.83;;
5475;SDS011;2760;50.000;9.194;2023-03-21T04:45:38;8.23;;;5.13;;
5475;SDS011;2760;50.000;9.194;2023-03-21T04:48:06;11.50;;;5.13;;
5475;SDS011;2760;50.000;9.194;2023-03-21T04:50:34;8.13;;;4.83;;
5475;SDS011;2760;50.000;9.194;2023-03-21T04:53:02;12.00;;;6.70;;
5475;SDS011;2760;50.000;9.194;2023-03-21T04:55:29;14.27;;;8.37;;
5475;SDS011;2760;50.000;9.194;2023-03-21T04:57:58;13.50;;;6.30;;
5475;SDS011;2760;50.000;9.194;2023-03-21T05:00:26;8.47;;;5.57;;
5475;SDS011;2760;50.000;9.194;2023-03-21T05:02:53;5.50;;;4.40;;
5475;SDS011;2760;50.000;9.194;2023-03-21T05:05:22;4.87;;;4.40;;
5475;SDS011;2760;50.000;9.194;2023-03-21T05:07:50;6.20;;;3.93;;
5475;SDS011;2760;50.000;9.194;2023-03-21T05:10:17;6.77;;;4.50;;
5475;SDS011;2760;50.000;9.194;2023-03-21T05:12:45;10.00;;;5.10;;
5475;SDS011;2760;50.000;9.194;2023-03-21T05:15:14;11.33;;;6.50;;
5475;SDS011;2760;50.000;9.194;2023-03-21T05:17:41;9.93;;;5.43;;
5475;SDS011;2760;50.000;9.194;2023-03-21T05:20:09;12.90;;;5.40;;
5475;SDS011;2760;50.000;9.194;2023-03-21T05:22:41;10.40;;;5.93;;
5475;SDS011;2760;50.000;9.194;2023-03-21T05:25:12;13.87;;;6.90;;
5475;SDS011;2760;50.000;9.194;2023-03-21T05:28:04;12.83;;;6.10;;
5475;SDS011;2760;50.000;9.194;2023-03-21T05:30:34;7.17;;;4.57;;
5475;SDS011;2760;50.000;9.194;2023-03-21T05:33:02;9.00;;;5.53;;
5475;SDS011;2760;50.000;9.194;2023-03-21T05:35:30;15.53;;;6.20;;
5475;SDS011;2760;50.000;9.194;2023-03-21T05:38:00;6.10;;;4.67;;
5475;SDS011;2760;50.000;9.194;2023-03-21T05:40:32;10.27;;;5.37;;
5475;SDS011;2760;50.000;9.194;2023-03-21T05:43:01;10.23;;;6.80;;
5475;SDS011;2760;50.000;9.194;2023-03-21T05:45:28;15.30;;;6.30;;
5475;SDS011;2760;50.000;9.194;2023-03-21T05:47:57;10.97;;;5.93;;
5475;SDS011;2760;50.000;9.194;2023-03-21T05:50:29;12.57;;;5.77;;
5475;SDS011;2760;50.000;9.194;2023-03-21T05:53:12;10.60;;;6.27;;
5475;SDS011;2760;50.000;9.194;2023-03-21T05:55:40;10.60;;;5.23;;
5475;SDS011;2760;50.000;9.194;2023-03-21T05:58:14;12.50;;;6.17;;
5475;SDS011;2760;50.000;9.194;2023-03-21T06:00:46;9.07;;;5.10;;
5475;SDS011;2760;50.000;9.194;2023-03-21T06:03:25;13.33;;;5.90;;
5475;SDS011;2760;50.000;9.194;2023-03-21T06:05:59;13.27;;;6.50;;
5475;SDS011;2760;50.000;9.194;2023-03-21T06:08:33;12.13;;;6.37;;
5475;SDS011;2760;50.000;9.194;2023-03-21T06:11:01;13.30;;;6.63;;
5475;SDS011;2760;50.000;9.194;2023-03-21T06:13:30;9.80;;;5.93;;
5475;SDS011;2760;50.000;9.194;2023-03-21T06:15:58;11.80;;;5.90;;
5475;SDS011;2760;50.000;9.194;2023-03-21T06:18:27;13.77;;;6.63;;
5475;SDS011;2760;50.000;9.194;2023-03-21T06:21:02;12.00;;;6.73;;
5475;SDS011;2760;50.000;9.194;2023-03-21T06:23:30;12.70;;;5.90;;
5475;SDS011;2760;50.000;9.194;2023-03-21T06:25:58;14.63;;;5.93;;
5475;SDS011;2760;50.000;9.194;2023-03-21T06:28:25;18.93;;;7.20;;
5475;SDS011;2760;50.000;9.194;2023-03-21T06:30:53;18.63;;;9.00;;
5475;SDS011;2760;50.000;9.194;2023-03-21T06:33:23;20.80;;;9.27;;
5475;SDS011;2760;50.000;9.194;2023-03-21T06:35:52;12.10;;;5.90;;
5475;SDS011;2760;50.000;9.194;2023-03-21T06:38:21;13.73;;;5.93;;
5475;SDS011;2760;50.000;9.194;2023-03-21T06:40:48;12.07;;;5.20;;
5475;SDS011;2760;50.000;9.194;2023-03-21T06:43:16;10.80;;;6.00;;
5475;SDS011;2760;50.000;9.194;2023-03-21T06:45:44;8.40;;;5.20;;
5475;SDS011;2760;50.000;9.194;2023-03-21T06:48:11;10.60;;;6.03;;
5475;SDS011;2760;50.000;9.194;2023-03-21T06:50:47;18.43;;;6.10;;
5475;SDS011;2760;50.000;9.194;2023-03-21T06:53:16;10.33;;;4.87;;
5475;SDS011;2760;50.000;9.194;2023-03-21T06:56:04;7.23;;;5.00;;
5475;SDS011;2760;50.000;9.194;2023-03-21T06:58:35;9.07;;;4.63;;
5475;SDS011;2760;50.000;9.194;2023-03-21T07:01:04;18.50;;;5.50;;
5475;SDS011;2760;50.000;9.194;2023-03-21T07:03:37;9.40;;;5.90;;
5475;SDS011;2760;50.000;9.194;2023-03-21T07:06:05;10.40;;;5.47;;
5475;SDS011;2760;50.000;9.194;2023-03-21T07:08:37;15.93;;;5.67;;
5475;SDS011;2760;50.000;9.194;2023-03-21T07:11:07;9.10;;;5.07;;
5475;SDS011;2760;50.000;9.194;2023-03-21T07:13:34;11.80;;;5.40;;
5475;SDS011;2760;50.000;9.194;2023-03-21T07:16:03;18.63;;;6.30;;
5475;SDS011;2760;50.000;9.194;2023-03-21T07:18:31;13.33;;;5.63;;
5475;SDS011;2760;50.000;9.194;2023-03-21T07:20:58;13.33;;;5.63;;
5475;SDS011;2760;50.000;9.194;2023-03-21T07:23:25;8.53;;;5.20;;
5475;SDS011;2760;50.000;9.194;2023-03-21T07:25:54;15.20;;;6.40;;
5475;SDS011;2760;50.000;9.194;2023-03-21T07:28:22;7.13;;;5.33;;
5475;SDS011;2760;50.000;9.194;2023-03-21T07:30:53;23.47;;;6.10;;
5475;SDS011;2760;50.000;9.194;2023-03-21T07:33:22;15.33;;;6.20;;
5475;SDS011;2760;50.000;9.194;2023-03-21T07:35:52;10.50;;;5.20;;
5475;SDS011;2760;50.000;9.194;2023-03-21T07:38:21;29.27;;;6.73;;
5475;SDS011;2760;50.000;9.194;2023-03-21T07:40:49;20.00;;;6.00;;
5475;SDS011;2760;50.000;9.194;2023-03-21T07:43:17;18.53;;;5.30;;
5475;SDS011;2760;50.000;9.194;2023-03-21T07:45:45;15.73;;;5.10;;
5475;SDS011;2760;50.000;9.194;2023-03-21T07:48:13;11.90;;;5.30;;
5475;SDS011;2760;50.000;9.194;2023-03-21T07:50:41;20.70;;;7.63;;
5475;SDS011;2760;50.000;9.194;2023-03-21T07:53:08;14.10;;;5.60;;
5475;SDS011;2760;50.000;9.194;2023-03-21T07:55:36;18.93;;;5.90;;
5475;SDS011;2760;50.000;9.194;2023-03-21T07:58:03;9.43;;;4.73;;
5475;SDS011;2760;50.000;9.194;2023-03-21T08:00:32;13.20;;;5.47;;
5475;SDS011;2760;50.000;9.194;2023-03-21T08:02:59;17.27;;;5.47;;
5475;SDS011;2760;50.000;9.194;2023-03-21T08:05:27;14.60;;;5.60;;
5475;SDS011;2760;50.000;9.194;2023-03-21T08:07:55;9.50;;;5.20;;
5475;SDS011;2760;50.000;9.194;2023-03-21T08:10:22;13.30;;;5.30;;
5475;SDS011;2760;50.000;9.194;2023-03-21T08:12:50;16.70;;;4.90;;
5475;SDS011;2760;50.000;9.194;2023-03-21T08:15:18;12.37;;;4.40;;
5475;SDS011;2760;50.000;9.194;2023-03-21T08:17:47;16.67;;;5.47;;
5475;SDS011;2760;50.000;9.194;2023-03-21T08:20:16;9.90;;;4.33;;
5475;SDS011;2760;50.000;9.194;2023-03-21T08:22:45;6.60;;;3.90;;
5475;SDS011;2760;50.000;9.194;2023-03-21T08:25:13;11.40;;;4.47;;
5475;SDS011;2760;50.000;9.194;2023-03-21T08:27:42;8.83;;;4.27;;
5475;SDS011;2760;50.000;9.194;2023-03-21T08:30:11;16.50;;;4.60;;
5475;SDS011;2760;50.000;9.194;2023-03-21T08:32:40;8.77;;;3.87;;
5475;SDS011;2760;50.000;9.194;2023-03-21T08:35:11;13.50;;;4.13;;
5475;SDS011;2760;50.000;9.194;2023-03-21T08:37:41;6.60;;;3.73;;
5475;SDS011;2760;50.000;9.194;2023-03-21T08:40:09;5.77;;;3.60;;
5475;SDS011;2760;50.000;9.194;2023-03-21T08:42:38;10.83;;;3.90;;
5475;SDS011;2760;50.000;9.194;2023-03-21T08:45:06;11.93;;;3.80;;
5475;SDS011;2760;50.000;9.194;2023-03-21T08:47:35;9.83;;;4.23;;
5475;SDS011;2760;50.000;9.194;2023-03-21T08:50:02;11.13;;;4.17;;
5475;SDS011;2760;50.000;9.194;2023-03-21T08:52:32;16.70;;;4.10;;
5475;SDS011;2760;50.000;9.194;2023-03-21T08:54:59;9.53;;;4.50;;
5475;SDS011;2760;50.000;9.194;2023-03-21T08:57:27;15.30;;;5.10;;
5475;SDS011;2760;50.000;9.194;2023-03-21T08:59:54;7.97;;;4.97;;
5475;SDS011;2760;50.000;9.194;2023-03-21T09:02:21;6.90;;;3.70;;
5475;SDS011;2760;50.000;9.194;2023-03-21T09:04:48;7.30;;;3.77;;
5475;SDS011;2760;50.000;9.194;2023-03-21T09:07:17;9.50;;;4.67;;
5475;SDS011;2760;50.000;9.194;2023-03-21T09:09:45;8.07;;;4.83;;
5475;SDS011;2760;50.000;9.194;2023-03-21T09:12:12;15.57;;;4.47;;
5475;SDS011;2760;50.000;9.194;2023-03-21T09:14:40;9.17;;;3.57;;
5475;SDS011;2760;50.000;9.194;2023-03-21T09:17:07;12.63;;;5.37;;
5475;SDS011;2760;50.000;9.194;2023-03-21T09:19:34;9.60;;;3.57;;
5475;SDS011;2760;50.000;9.194;2023-03-21T09:22:02;8.13;;;4.40;;
5475;SDS011;2760;50.000;9.194;2023-03-21T09:24:30;5.80;;;3.97;;
5475;SDS011;2760;50.000;9.194;2023-03-21T09:26:58;8.93;;;4.83;;
5475;SDS011;2760;50.000;9.194;2023-03-21T09:29:26;13.97;;;5.00;;
5475;SDS011;2760;50.000;9.194;2023-03-21T09:31:53;10.53;;;5.53;;
5475;SDS011;2760;50.000;9.194;2023-03-21T09:34:20;10.97;;;4.20;;
5475;SDS011;2760;50.000;9.194;2023-03-21T09:36:47;8.70;;;4.50;;
5475;SDS011;2760;50.000;9.194;2023-03-21T09:39:16;13.33;;;5.63;;
5475;SDS011;2760;50.000;9.194;2023-03-21T09:41:47;8.83;;;3.73;;
5475;SDS011;2760;50.000;9.194;2023-03-21T09:44:34;16.70;;;4.10;;
5475;SDS011;2760;50.000;9.194;2023-03-21T09:47:13;9.87;;;3.90;;
5475;SDS011;2760;50.000;9.194;2023-03-21T09:49:46;7.30;;;4.33;;
5475;SDS011;2760;50.000;9.194;2023-03-21T09:52:18;11.47;;;4.17;;
5475;SDS011;2760;50.000;9.194;2023-03-21T09:54:48;7.00;;;4.40;;
5475;SDS011;2760;50.000;9.194;2023-03-21T09:57:19;16.23;;;4.90;;
5475;SDS011;2760;50.000;9.194;2023-03-21T09:59:56;14.67;;;4.37;;
5475;SDS011;2760;50.000;9.194;2023-03-21T10:02:38;9.13;;;4.17;;
5475;SDS011;2760;50.000;9.194;2023-03-21T10:05:11;8.03;;;3.77;;
5475;SDS011;2760;50.000;9.194;2023-03-21T10:07:43;12.47;;;4.20;;
5475;SDS011;2760;50.000;9.194;2023-03-21T10:10:14;8.53;;;3.40;;
5475;SDS011;2760;50.000;9.194;2023-03-21T10:12:45;8.63;;;3.50;;
5475;SDS011;2760;50.000;9.194;2023-03-21T10:15:17;8.93;;;3.67;;
5475;SDS011;2760;50.000;9.194;2023-03-21T10:17:47;18.60;;;4.10;;
5475;SDS011;2760;50.000;9.194;2023-03-21T10:20:20;16.83;;;4.50;;
5475;SDS011;2760;50.000;9.194;2023-03-21T10:22:49;6.87;;;3.60;;
5475;SDS011;2760;50.000;9.194;2023-03-21T10:25:18;9.23;;;3.93;;
5475;SDS011;2760;50.000;9.194;2023-03-21T10:27:47;11.00;;;4.50;;
5475;SDS011;2760;50.000;9.194;2023-03-21T10:30:23;16.17;;;5.37;;
5475;SDS011;2760;50.000;9.194;2023-03-21T10:32:55;6.27;;;3.43;;
5475;SDS011;2760;50.000;9.194;2023-03-21T10:35:26;12.53;;;4.57;;
5475;SDS011;2760;50.000;9.194;2023-03-21T10:37:55;8.80;;;4.10;;
5475;SDS011;2760;50.000;9.194;2023-03-21T10:40:22;7.57;;;4.40;;
5475;SDS011;2760;50.000;9.194;2023-03-21T10:42:49;8.10;;;4.00;;
5475;SDS011;2760;50.000;9.194;2023-03-21T10:45:17;11.10;;;4.40;;
5475;SDS011;2760;50.000;9.194;2023-03-21T10:47:47;8.30;;;4.00;;
5475;SDS011;2760;50.000;9.194;2023-03-21T10:50:17;11.10;;;4.00;;
5475;SDS011;2760;50.000;9.194;2023-03-21T10:52:50;12.60;;;4.07;;
5475;SDS011;2760;50.000;9.194;2023-03-21T10:55:25;6.67;;;4.30;;
5475;SDS011;2760;50.000;9.194;2023-03-21T10:57:56;12.20;;;4.97;;
5475;SDS011;2760;50.000;9.194;2023-03-21T11:00:27;21.37;;;5.13;;
5475;SDS011;2760;50.000;9.194;2023-03-21T11:03:01;15.63;;;5.17;;
5475;SDS011;2760;50.000;9.194;2023-03-21T11:05:33;17.37;;;3.87;;
5475;SDS011;2760;50.000;9.194;2023-03-21T11:08:02;9.20;;;4.73;;
5475;SDS011;2760;50.000;9.194;2023-03-21T11:10:32;10.63;;;4.03;;
5475;SDS011;2760;50.000;9.194;2023-03-21T11:13:02;7.60;;;4.57;;
5475;SDS011;2760;50.000;9.194;2023-03-21T11:15:37;22.93;;;4.40;;
5475;SDS011;2760;50.000;9.194;2023-03-21T11:18:22;12.63;;;4.23;;
5475;SDS011;2760;50.000;9.194;2023-03-21T11:20:52;12.40;;;5.33;;
5475;SDS011;2760;50.000;9.194;2023-03-21T11:23:20;10.63;;;4.80;;
5475;SDS011;2760;50.000;9.194;2023-03-21T11:25:51;12.23;;;5.10;;
5475;SDS011;2760;50.000;9.194;2023-03-21T11:28:19;9.20;;;5.00;;
5475;SDS011;2760;50.000;9.194;2023-03-21T11:30:49;15.93;;;5.37;;
5475;SDS011;2760;50.000;9.194;2023-03-21T11:33:21;9.10;;;5.13;;
5475;SDS011;2760;50.000;9.194;2023-03-21T11:35:58;11.57;;;5.20;;
5475;SDS011;2760;50.000;9.194;2023-03-21T11:38:29;11.43;;;5.17;;
5475;SDS011;2760;50.000;9.194;2023-03-21T11:40:59;13.27;;;5.20;;
5475;SDS011;2760;50.000;9.194;2023-03-21T11:43:28;19.00;;;5.43;;
5475;SDS011;2760;50.000;9.194;2023-03-21T11:45:57;16.33;;;4.47;;
5475;SDS011;2760;50.000;9.194;2023-03-21T11:48:27;10.13;;;4.80;;
5475;SDS011;2760;50.000;9.194;2023-03-21T11:50:57;13.10;;;5.17;;
5475;SDS011;2760;50.000;9.194;2023-03-21T11:53:33;13.63;;;5.47;;
5475;SDS011;2760;50.000;9.194;2023-03-21T11:56:19;12.77;;;4.87;;
5475;SDS011;2760;50.000;9.194;2023-03-21T11:59:03;8.43;;;4.43;;
5475;SDS011;2760;50.000;9.194;2023-03-21T12:01:42;9.50;;;4.97;;
5475;SDS011;2760;50.000;9.194;2023-03-21T12:04:20;8.50;;;4.80;;
5475;SDS011;2760;50.000;9.194;2023-03-21T12:06:59;12.00;;;4.37;;
5475;SDS011;2760;50.000;9.194;2023-03-21T12:09:34;11.20;;;4.30;;
5475;SDS011;2760;50.000;9.194;2023-03-21T12:12:08;8.40;;;4.03;;
5475;SDS011;2760;50.000;9.194;2023-03-21T12:14:50;15.90;;;4.43;;
5475;SDS011;2760;50.000;9.194;2023-03-21T12:17:29;12.10;;;5.10;;
5475;SDS011;2760;50.000;9.194;2023-03-21T12:20:20;8.27;;;4.77;;
5475;SDS011;2760;50.000;9.194;2023-03-21T12:22:55;10.17;;;4.27;;
5475;SDS011;2760;50.000;9.194;2023-03-21T12:25:37;15.17;;;3.80;;
5475;SDS011;2760;50.000;9.194;2023-03-21T12:28:12;9.40;;;4.37;;
5475;SDS011;2760;50.000;9.194;2023-03-21T12:30:50;7.53;;;4.30;;
5475;SDS011;2760;50.000;9.194;2023-03-21T12:33:27;10.90;;;4.30;;
5475;SDS011;2760;50.000;9.194;2023-03-21T12:36:09;6.00;;;4.50;;
5475;SDS011;2760;50.000;9.194;2023-03-21T12:38:47;12.77;;;4.77;;
5475;SDS011;2760;50.000;9.194;2023-03-21T12:41:23;8.50;;;5.23;;
5475;SDS011;2760;50.000;9.194;2023-03-21T12:43:55;10.73;;;4.10;;
5475;SDS011;2760;50.000;9.194;2023-03-21T12:46:28;9.67;;;4.40;;
5475;SDS011;2760;50.000;9.194;2023-03-21T12:49:02;5.77;;;4.00;;
5475;SDS011;2760;50.000;9.194;2023-03-21T12:51:35;8.23;;;4.57;;
5475;SDS011;2760;50.000;9.194;2023-03-21T12:54:10;8.20;;;4.33;;
5475;SDS011;2760;50.000;9.194;2023-03-21T12:56:45;10.43;;;4.77;;
5475;SDS011;2760;50.000;9.194;2023-03-21T12:59:19;14.50;;;5.47;;
5475;SDS011;2760;50.000;9.194;2023-03-21T13:01:54;9.60;;;6.00;;
5475;SDS011;2760;50.000;9.194;2023-03-21T13:04:38;12.00;;;6.23;;
5475;SDS011;2760;50.000;9.194;2023-03-21T13:07:12;9.87;;;5.80;;
5475;SDS011;2760;50.000;9.194;2023-03-21T13:09:44;21.20;;;8.07;;
5475;SDS011;2760;50.000;9.194;2023-03-21T13:12:24;13.37;;;6.60;;
5475;SDS011;2760;50.000;9.194;2023-03-21T13:15:07;13.40;;;5.70;;
5475;SDS011;2760;50.000;9.194;2023-03-21T13:17:49;18.07;;;7.63;;
5475;SDS011;2760;50.000;9.194;2023-03-21T13:20:21;11.57;;;6.03;;
5475;SDS011;2760;50.000;9.194;2023-03-21T13:22:55;11.97;;;6.27;;
5475;SDS011;2760;50.000;9.194;2023-03-21T13:25:22;10.90;;;6.63;;
5475;SDS011;2760;50.000;9.194;2023-03-21T13:27:52;13.33;;;5.83;;
5475;SDS011;2760;50.000;9.194;2023-03-21T13:30:21;15.20;;;6.23;;
5475;SDS011;2760;50.000;9.194;2023-03-21T13:32:54;12.03;;;6.27;;
5475;SDS011;2760;50.000;9.194;2023-03-21T13:35:32;11.90;;;5.73;;
5475;SDS011;2760;50.000;9.194;2023-03-21T13:38:04;10.00;;;6.50;;
5475;SDS011;2760;50.000;9.194;2023-03-21T13:40:38;12.27;;;7.00;;
5475;SDS011;2760;50.000;9.194;2023-03-21T13:46:04;10.20;;;6.03;;
5475;SDS011;2760;50.000;9.194;2023-03-21T13:48:40;9.70;;;6.30;;
5475;SDS011;2760;50.000;9.194;2023-03-21T13:51:09;12.17;;;7.27;;
5475;SDS011;2760;50.000;9.194;2023-03-21T13:53:38;18.47;;;7.43;;
5475;SDS011;2760;50.000;9.194;2023-03-21T13:56:23;12.70;;;6.57;;
5475;SDS011;2760;50.000;9.194;2023-03-21T13:58:51;9.07;;;6.43;;
5475;SDS011;2760;50.000;9.194;2023-03-21T14:01:24;18.10;;;7.13;;
5475;SDS011;2760;50.000;9.194;2023-03-21T14:04:13;10.90;;;6.33;;
5475;SDS011;2760;50.000;9.194;2023-03-21T14:06:43;36.87;;;9.40;;
5475;SDS011;2760;50.000;9.194;2023-03-21T14:09:17;35.87;;;12.80;;
5475;SDS011;2760;50.000;9.194;2023-03-21T14:11:48;16.90;;;8.00;;
5475;SDS011;2760;50.000;9.194;2023-03-21T14:14:18;14.80;;;7.57;;
5475;SDS011;2760;50.000;9.194;2023-03-21T14:16:47;18.00;;;6.97;;
5475;SDS011;2760;50.000;9.194;2023-03-21T14:19:17;16.03;;;7.37;;
5475;SDS011;2760;50.000;9.194;2023-03-21T14:21:48;19.43;;;7.43;;
5475;SDS011;2760;50.000;9.194;2023-03-21T14:24:19;19.10;;;7.60;;
5475;SDS011;2760;50.000;9.194;2023-03-21T14:26:47;24.60;;;8.60;;
5475;SDS011;2760;50.000;9.194;2023-03-21T14:29:17;20.27;;;7.60;;
5475;SDS011;2760;50.000;9.194;2023-03-21T14:31:48;19.97;;;9.57;;
5475;SDS011;2760;50.000;9.194;2023-03-21T14:34:15;13.70;;;6.80;;
5475;SDS011;2760;50.000;9.194;2023-03-21T14:36:43;13.53;;;7.70;;
5475;SDS011;2760;50.000;9.194;2023-03-21T14:39:12;22.83;;;8.67;;
5475;SDS011;2760;50.000;9.194;2023-03-21T14:41:46;25.90;;;8.60;;
5475;SDS011;2760;50.000;9.194;2023-03-21T14:44:19;23.07;;;8.67;;
5475;SDS011;2760;50.000;9.194;2023-03-21T14:46:50;20.20;;;8.50;;
5475;SDS011;2760;50.000;9.194;2023-03-21T14:49:26;17.00;;;9.40;;
5475;SDS011;2760;50.000;9.194;2023-03-21T14:51:54;29.07;;;8.80;;
5475;SDS011;2760;50.000;9.194;2023-03-21T14:54:24;25.80;;;8.87;;
5475;SDS011;2760;50.000;9.194;2023-03-21T14:56:54;22.40;;;9.47;;
5475;SDS011;2760;50.000;9.194;2023-03-21T14:59:26;15.90;;;9.00;;
5475;SDS011;2760;50.000;9.194;2023-03-21T15:01:58;13.60;;;8.47;;
5475;SDS011;2760;50.000;9.194;2023-03-21T15:04:28;22.90;;;10.60;;
5475;SDS011;2760;50.000;9.194;2023-03-21T15:06:57;18.27;;;9.77;;
5475;SDS011;2760;50.000;9.194;2023-03-21T15:09:31;17.23;;;9.03;;
5475;SDS011;2760;50.000;9.194;2023-03-21T15:12:02;21.80;;;9.20;;
5475;SDS011;2760;50.000;9.194;2023-03-21T15:14:34;19.43;;;9.80;;
5475;SDS011;2760;50.000;9.194;2023-03-21T15:17:03;16.33;;;8.90;;
5475;SDS011;2760;50.000;9.194;2023-03-21T15:19:32;16.07;;;8.53;;
5475;SDS011;2760;50.000;9.194;2023-03-21T15:22:03;17.10;;;8.60;;
5475;SDS011;2760;50.000;9.194;2023-03-21T15:24:37;14.73;;;9.50;;
5475;SDS011;2760;50.000;9.194;2023-03-21T15:27:11;12.57;;;8.43;;
5475;SDS011;2760;50.000;9.194;2023-03-21T15:29:41;12.00;;;8.27;;
5475;SDS011;2760;50.000;9.194;2023-03-21T15:32:13;11.47;;;9.13;;
5475;SDS011;2760;50.000;9.194;2023-03-21T15:34:42;15.07;;;9.97;;
5475;SDS011;2760;50.000;9.194;2023-03-21T15:37:15;16.90;;;10.17;;
5475;SDS011;2760;50.000;9.194;2023-03-21T15:39:44;17.60;;;10.80;;
5475;SDS011;2760;50.000;9.194;2023-03-21T15:42:27;22.13;;;13.37;;
5475;SDS011;2760;50.000;9.194;2023-03-21T15:45:00;27.67;;;12.37;;